createdAt,value
2022-11-05T00:02:27.513Z,14.27
2022-11-05T00:05:14.170Z,12.90
2022-11-05T00:08:01.612Z,11.50
2022-11-05T00:10:32.164Z,12.47
2022-11-05T00:13:18.925Z,12.83
2022-11-05T00:16:04.624Z,11.97
2022-11-05T00:18:32.836Z,13.67
2022-11-05T00:21:02.239Z,13.40
2022-11-05T00:23:47.438Z,13.10
2022-11-05T00:26:15.462Z,14.40
2022-11-05T00:28:44.684Z,11.60
2022-11-05T00:31:14.523Z,12.83
2022-11-05T00:33:44.174Z,13.13
2022-11-05T00:36:13.499Z,15.17
2022-11-05T00:38:41.464Z,13.07
2022-11-05T00:41:09.445Z,16.70
2022-11-05T00:43:54.671Z,17.43
2022-11-05T00:46:23.383Z,16.63
2022-11-05T00:49:08.612Z,16.50
2022-11-05T00:51:37.930Z,12.83
2022-11-05T00:54:05.953Z,13.30
2022-11-05T00:56:33.933Z,18.20
2022-11-05T00:59:01.908Z,14.93
2022-11-05T01:01:29.939Z,16.90
2022-11-05T01:03:58.050Z,15.40
2022-11-05T01:06:26.001Z,16.93
2022-11-05T01:08:57.311Z,16.87
2022-11-05T01:11:34.150Z,15.87
2022-11-05T01:14:03.974Z,14.97
2022-11-05T01:16:33.451Z,16.63
2022-11-05T01:19:02.369Z,14.60
2022-11-05T01:21:30.347Z,18.33
2022-11-05T01:23:59.734Z,14.00
2022-11-05T01:26:28.228Z,15.63
2022-11-05T01:28:57.808Z,14.17
2022-11-05T01:31:26.113Z,14.03
2022-11-05T01:33:54.117Z,17.67
2022-11-05T01:36:22.219Z,16.90
2022-11-05T01:38:50.157Z,14.30
2022-11-05T01:41:19.490Z,16.60
2022-11-05T01:43:49.583Z,16.47
2022-11-05T01:46:19.463Z,17.53
2022-11-05T01:48:50.527Z,17.37
2022-11-05T01:51:21.727Z,16.87
2022-11-05T01:53:53.191Z,17.83
2022-11-05T01:56:25.616Z,17.70
2022-11-05T01:58:56.709Z,15.83
2022-11-05T02:01:25.436Z,15.27
2022-11-05T02:03:57.526Z,17.37
2022-11-05T02:06:26.859Z,14.23
2022-11-05T02:09:00.830Z,14.17
2022-11-05T02:11:30.566Z,13.57
2022-11-05T02:13:58.686Z,14.33
2022-11-05T02:16:37.635Z,17.43
2022-11-05T02:19:17.543Z,16.23
2022-11-05T02:22:11.298Z,18.37
2022-11-05T02:25:10.303Z,17.10
2022-11-05T02:28:16.301Z,13.23
2022-11-05T02:30:49.685Z,13.07
2022-11-05T02:33:28.740Z,12.50
2022-11-05T02:36:25.341Z,10.70
2022-11-05T02:39:06.080Z,12.27
2022-11-05T02:41:41.588Z,13.07
2022-11-05T02:44:18.580Z,9.60
2022-11-05T02:46:57.632Z,11.07
2022-11-05T02:49:38.343Z,7.87
2022-11-05T02:52:10.650Z,9.83
2022-11-05T02:54:44.106Z,10.30
2022-11-05T02:57:12.113Z,10.67
2022-11-05T02:59:40.123Z,9.60
2022-11-05T03:02:09.844Z,8.37
2022-11-05T03:04:38.003Z,9.60
2022-11-05T03:07:21.460Z,10.13
2022-11-05T03:10:22.002Z,7.20
2022-11-05T03:13:01.934Z,9.97
2022-11-05T03:15:43.213Z,7.17
2022-11-05T03:18:17.042Z,8.17
2022-11-05T03:20:50.050Z,8.53
2022-11-05T03:23:25.838Z,9.50
2022-11-05T03:25:59.274Z,10.47
2022-11-05T03:28:32.119Z,10.10
2022-11-05T03:31:01.121Z,9.83
2022-11-05T03:33:34.484Z,8.03
2022-11-05T03:36:07.819Z,9.67
2022-11-05T03:38:39.714Z,12.30
2022-11-05T03:41:10.908Z,9.23
2022-11-05T03:43:42.876Z,10.03
2022-11-05T03:46:13.415Z,13.20
2022-11-05T03:48:48.468Z,12.13
2022-11-05T03:51:25.152Z,11.23
2022-11-05T03:53:58.502Z,14.90
2022-11-05T03:56:31.505Z,12.10
2022-11-05T03:59:01.890Z,12.43
2022-11-05T04:01:31.073Z,13.00
2022-11-05T04:04:00.464Z,15.97
2022-11-05T04:06:46.041Z,15.43
2022-11-05T04:09:31.527Z,20.73
2022-11-05T04:12:17.126Z,16.07
2022-11-05T04:14:45.078Z,14.03
2022-11-05T04:17:12.227Z,17.27
2022-11-05T04:20:00.731Z,17.60
2022-11-05T04:22:47.649Z,16.17
2022-11-05T04:25:16.659Z,20.80
2022-11-05T04:27:44.880Z,15.03
2022-11-05T04:30:18.817Z,21.70
2022-11-05T04:33:04.481Z,15.03
2022-11-05T04:35:35.920Z,20.00
2022-11-05T04:38:04.454Z,17.37
2022-11-05T04:40:32.749Z,17.30
2022-11-05T04:43:00.888Z,15.70
2022-11-05T04:45:31.078Z,17.40
2022-11-05T04:47:59.110Z,14.27
2022-11-05T04:50:27.536Z,17.50
2022-11-05T04:52:56.866Z,16.50
2022-11-05T04:55:24.845Z,19.00
2022-11-05T04:57:54.039Z,19.10
2022-11-05T05:00:23.124Z,13.70
2022-11-05T05:02:51.638Z,19.97
2022-11-05T05:05:19.707Z,14.20
2022-11-05T05:07:47.703Z,14.33
2022-11-05T05:10:17.051Z,13.83
2022-11-05T05:12:45.098Z,18.60
2022-11-05T05:15:13.381Z,17.03
2022-11-05T05:17:41.382Z,14.73
2022-11-05T05:20:27.201Z,15.23
2022-11-05T05:22:55.939Z,17.27
2022-11-05T05:25:25.424Z,12.07
2022-11-05T05:27:53.402Z,10.77
2022-11-05T05:30:21.460Z,11.77
2022-11-05T05:32:49.659Z,13.73
2022-11-05T05:35:18.072Z,14.23
2022-11-05T05:37:46.100Z,12.03
2022-11-05T05:40:14.178Z,10.93
2022-11-05T05:42:43.771Z,15.60
2022-11-05T05:45:13.223Z,15.03
2022-11-05T05:47:41.234Z,12.57
2022-11-05T05:50:09.489Z,15.20
2022-11-05T05:52:37.493Z,15.97
2022-11-05T05:55:06.088Z,14.80
2022-11-05T05:57:35.411Z,9.93
2022-11-05T06:00:05.892Z,12.97
2022-11-05T06:02:34.005Z,12.57
2022-11-05T06:05:02.136Z,11.93
2022-11-05T06:07:34.513Z,12.20
2022-11-05T06:10:05.763Z,13.97
2022-11-05T06:12:33.808Z,19.50
2022-11-05T06:15:01.785Z,12.40
2022-11-05T06:17:31.107Z,13.83
2022-11-05T06:19:59.085Z,12.30
2022-11-05T06:22:27.073Z,11.63
2022-11-05T06:24:55.103Z,11.70
2022-11-05T06:27:23.064Z,12.87
2022-11-05T06:29:51.108Z,13.63
2022-11-05T06:32:19.091Z,10.80
2022-11-05T06:34:48.508Z,11.10
2022-11-05T06:37:16.536Z,10.00
2022-11-05T06:39:44.748Z,9.43
2022-11-05T06:42:18.299Z,11.67
2022-11-05T06:44:46.958Z,9.60
2022-11-05T06:47:14.956Z,10.77
2022-11-05T06:49:42.999Z,13.80
2022-11-05T06:52:12.625Z,11.20
2022-11-05T06:54:41.106Z,9.23
2022-11-05T06:57:09.965Z,11.00
2022-11-05T06:59:38.077Z,11.23
2022-11-05T07:02:06.645Z,10.03
2022-11-05T07:04:35.079Z,12.53
2022-11-05T07:07:03.208Z,10.83
2022-11-05T07:09:32.743Z,8.83
2022-11-05T07:12:00.782Z,10.07
2022-11-05T07:14:28.834Z,15.53
2022-11-05T07:16:58.445Z,8.53
2022-11-05T07:19:26.519Z,13.03
2022-11-05T07:21:54.983Z,10.70
2022-11-05T07:24:23.031Z,8.90
2022-11-05T07:26:52.378Z,11.10
2022-11-05T07:29:20.382Z,10.13
2022-11-05T07:31:48.701Z,13.30
2022-11-05T07:34:16.729Z,9.10
2022-11-05T07:36:44.770Z,12.27
2022-11-05T07:39:12.871Z,11.63
2022-11-05T07:41:40.974Z,10.67
2022-11-05T07:44:10.328Z,9.93
2022-11-05T07:46:38.463Z,11.57
2022-11-05T07:49:06.821Z,7.63
2022-11-05T07:51:34.837Z,9.33
2022-11-05T07:54:02.978Z,10.40
2022-11-05T07:56:31.057Z,9.10
2022-11-05T07:58:59.111Z,10.30
2022-11-05T08:01:28.720Z,7.77
2022-11-05T08:03:56.927Z,10.43
2022-11-05T08:06:24.982Z,7.10
2022-11-05T08:08:52.940Z,7.33
2022-11-05T08:11:20.945Z,10.93
2022-11-05T08:13:48.983Z,12.13
2022-11-05T08:16:17.627Z,8.37
2022-11-05T08:18:47.044Z,6.67
2022-11-05T08:21:15.068Z,12.10
2022-11-05T08:23:43.050Z,10.50
2022-11-05T08:26:12.114Z,10.30
2022-11-05T08:28:40.106Z,8.27
2022-11-05T08:31:08.175Z,8.10
2022-11-05T08:33:36.155Z,10.63
2022-11-05T08:36:06.442Z,9.13
2022-11-05T08:38:34.451Z,7.97
2022-11-05T08:41:02.565Z,9.87
2022-11-05T08:43:30.537Z,7.50
2022-11-05T08:46:00.616Z,11.23
2022-11-05T08:48:28.697Z,9.37
2022-11-05T08:50:56.770Z,11.53
2022-11-05T08:53:26.130Z,6.87
2022-11-05T08:55:55.229Z,11.90
2022-11-05T08:58:23.251Z,9.23
2022-11-05T09:00:51.590Z,9.73
2022-11-05T09:03:20.068Z,6.83
2022-11-05T09:05:48.130Z,9.03
2022-11-05T09:08:17.812Z,12.20
2022-11-05T09:10:49.740Z,11.57
2022-11-05T09:13:19.778Z,9.27
2022-11-05T09:15:48.404Z,12.10
2022-11-05T09:18:17.116Z,9.57
2022-11-05T09:20:45.821Z,12.77
2022-11-05T09:23:15.990Z,8.67
2022-11-05T09:25:44.509Z,14.53
2022-11-05T09:28:17.180Z,9.33
2022-11-05T09:30:47.349Z,13.43
2022-11-05T09:33:16.438Z,12.50
2022-11-05T09:35:44.511Z,9.13
2022-11-05T09:38:12.917Z,11.50
2022-11-05T09:40:45.375Z,8.27
2022-11-05T09:43:20.297Z,14.20
2022-11-05T09:45:52.412Z,10.07
2022-11-05T09:48:25.247Z,6.97
2022-11-05T09:50:54.697Z,15.93
2022-11-05T09:53:24.545Z,9.00
2022-11-05T09:55:56.277Z,11.33
2022-11-05T09:58:35.403Z,6.93
2022-11-05T10:01:05.363Z,8.47
2022-11-05T10:03:40.226Z,15.20
2022-11-05T10:06:10.870Z,8.83
2022-11-05T10:08:43.785Z,14.63
2022-11-05T10:11:17.288Z,9.47
2022-11-05T10:13:49.023Z,6.13
2022-11-05T10:16:24.995Z,7.80
2022-11-05T10:18:57.162Z,14.90
2022-11-05T10:21:51.615Z,12.27
2022-11-05T10:24:19.406Z,10.73
2022-11-05T10:26:49.005Z,11.53
2022-11-05T10:29:26.980Z,13.90
2022-11-05T10:37:01.678Z,9.77
2022-11-05T10:39:37.426Z,11.90
2022-11-05T10:42:31.062Z,11.67
2022-11-05T10:45:08.873Z,9.80
2022-11-05T10:47:50.285Z,6.07
2022-11-05T10:50:21.191Z,8.17
2022-11-05T10:52:59.254Z,13.37
2022-11-05T10:55:30.238Z,7.83
2022-11-05T10:58:10.296Z,11.27
2022-11-05T11:00:38.741Z,5.93
2022-11-05T11:03:38.121Z,11.57
2022-11-05T11:06:20.745Z,8.67
2022-11-05T11:08:52.409Z,7.33
2022-11-05T11:11:33.868Z,6.27
2022-11-05T11:14:04.801Z,11.80
2022-11-05T11:16:38.152Z,10.43
2022-11-05T11:19:25.174Z,9.20
2022-11-05T11:22:17.681Z,7.43
2022-11-05T11:24:49.488Z,8.93
2022-11-05T11:27:22.108Z,11.57
2022-11-05T11:29:56.053Z,11.10
2022-11-05T11:32:28.454Z,11.50
2022-11-05T11:34:58.363Z,27.53
2022-11-05T11:37:29.551Z,9.97
2022-11-05T11:40:03.895Z,14.03
2022-11-05T11:42:34.723Z,9.83
2022-11-05T11:45:08.155Z,10.17
2022-11-05T11:47:36.274Z,10.40
2022-11-05T11:50:04.418Z,11.33
2022-11-05T11:52:34.575Z,7.83
2022-11-05T11:55:20.075Z,9.00
2022-11-05T11:57:50.318Z,15.20
2022-11-05T12:00:20.105Z,8.10
2022-11-05T12:03:02.120Z,8.77
2022-11-05T12:05:44.708Z,7.87
2022-11-05T12:08:30.401Z,7.63
2022-11-05T12:11:06.689Z,10.57
2022-11-05T12:13:54.858Z,7.27
2022-11-05T12:16:31.027Z,7.53
2022-11-05T12:19:07.723Z,13.97
2022-11-05T12:21:58.144Z,12.40
2022-11-05T12:25:02.736Z,7.27
2022-11-05T12:27:50.831Z,9.73
2022-11-05T12:30:20.579Z,10.33
2022-11-05T12:33:09.991Z,19.23
2022-11-05T12:35:48.960Z,9.90
2022-11-05T12:38:29.506Z,8.57
2022-11-05T12:41:11.423Z,8.77
2022-11-05T12:43:55.668Z,10.30
2022-11-05T12:46:29.477Z,8.93
2022-11-05T12:49:25.144Z,10.27
2022-11-05T12:52:09.642Z,12.83
2022-11-05T12:55:04.102Z,7.43
2022-11-05T12:57:35.549Z,9.23
2022-11-05T13:00:10.534Z,7.37
2022-11-05T13:02:46.195Z,9.30
2022-11-05T13:05:17.736Z,12.27
2022-11-05T13:07:54.801Z,13.90
2022-11-05T13:10:30.937Z,7.17
2022-11-05T13:13:06.223Z,10.23
2022-11-05T13:15:39.933Z,7.60
2022-11-05T13:18:14.532Z,8.47
2022-11-05T13:20:47.435Z,12.33
2022-11-05T13:23:24.158Z,10.10
2022-11-05T13:25:58.942Z,8.47
2022-11-05T13:28:41.938Z,11.77
2022-11-05T13:31:15.963Z,9.40
2022-11-05T13:33:46.632Z,8.17
2022-11-05T13:36:35.721Z,8.00
2022-11-05T13:39:12.727Z,9.00
2022-11-05T13:42:02.497Z,10.27
2022-11-05T13:44:48.649Z,11.27
2022-11-05T13:47:38.199Z,10.33
2022-11-05T13:50:51.009Z,7.97
2022-11-05T13:53:49.950Z,6.43
2022-11-05T13:56:35.869Z,8.10
2022-11-05T13:59:30.018Z,3.87
2022-11-05T14:02:00.334Z,7.27
2022-11-05T14:04:35.393Z,7.37
2022-11-05T14:07:09.650Z,6.37
2022-11-05T14:09:38.947Z,8.73
2022-11-05T14:12:15.946Z,4.07
2022-11-05T14:14:48.553Z,6.47
2022-11-05T14:17:27.639Z,5.77
2022-11-05T14:20:25.276Z,6.97
2022-11-05T14:22:53.766Z,3.60
2022-11-05T14:26:01.314Z,7.37
2022-11-05T14:28:48.379Z,6.03
2022-11-05T14:32:07.137Z,4.67
2022-11-05T14:34:48.217Z,8.03
2022-11-05T14:37:27.445Z,4.80
2022-11-05T14:39:56.610Z,10.67
2022-11-05T14:42:27.682Z,10.23
2022-11-05T14:45:04.509Z,10.60
2022-11-05T14:47:35.436Z,5.30
2022-11-05T14:50:09.941Z,6.77
2022-11-05T14:52:40.907Z,9.90
2022-11-05T14:55:27.946Z,5.97
2022-11-05T14:58:17.986Z,6.37
2022-11-05T15:00:50.303Z,4.93
2022-11-05T15:03:42.633Z,4.83
2022-11-05T15:06:29.770Z,4.63
2022-11-05T15:09:20.686Z,7.33
2022-11-05T15:12:12.566Z,6.03
2022-11-05T15:14:49.152Z,6.93
2022-11-05T15:17:22.967Z,4.80
2022-11-05T15:19:53.239Z,4.40
2022-11-05T15:22:33.908Z,4.60
2022-11-05T15:25:05.305Z,10.03
2022-11-05T15:27:51.320Z,6.00
2022-11-05T15:30:21.772Z,5.20
2022-11-05T15:32:49.747Z,6.73
2022-11-05T15:35:27.004Z,9.33
2022-11-05T15:38:01.657Z,6.77
2022-11-05T15:40:34.475Z,8.87
2022-11-05T15:43:19.475Z,10.53
2022-11-05T15:46:03.249Z,5.40
2022-11-05T15:48:31.503Z,6.37
2022-11-05T15:50:59.724Z,6.93
2022-11-05T15:56:51.907Z,9.53
2022-11-05T15:59:22.204Z,5.57
2022-11-05T16:01:52.192Z,4.00
2022-11-05T16:04:22.439Z,6.17
2022-11-05T16:06:53.458Z,10.23
2022-11-05T16:09:24.223Z,6.80
2022-11-05T16:12:13.572Z,7.53
2022-11-05T16:14:42.340Z,3.87
2022-11-05T16:17:21.657Z,5.00
2022-11-05T16:19:50.177Z,4.57
2022-11-05T16:22:18.730Z,5.80
2022-11-05T16:24:47.843Z,10.50
2022-11-05T16:27:20.021Z,11.63
2022-11-05T16:29:51.862Z,7.00
2022-11-05T16:32:28.560Z,10.90
2022-11-05T16:35:00.605Z,10.03
2022-11-05T16:37:30.772Z,8.47
2022-11-05T16:39:58.766Z,8.50
2022-11-05T16:42:45.499Z,11.73
2022-11-05T16:45:14.808Z,16.00
2022-11-05T16:47:44.093Z,16.03
2022-11-05T16:50:18.495Z,14.40
2022-11-05T16:52:47.216Z,13.03
2022-11-05T16:55:16.717Z,14.03
2022-11-05T16:57:48.954Z,12.37
2022-11-05T17:00:19.050Z,5.07
2022-11-05T17:02:47.599Z,5.37
2022-11-05T17:05:22.499Z,4.70
2022-11-05T17:07:50.500Z,5.53
2022-11-05T17:10:18.849Z,8.80
2022-11-05T17:15:23.663Z,6.50
2022-11-05T17:17:52.373Z,5.80
2022-11-05T17:20:39.801Z,4.60
2022-11-05T17:23:10.326Z,5.77
2022-11-05T17:25:38.870Z,5.47
2022-11-05T17:28:07.230Z,3.73
2022-11-05T17:30:36.673Z,7.70
2022-11-05T17:33:04.804Z,8.47
2022-11-05T17:35:33.250Z,5.00
2022-11-05T17:38:01.237Z,4.63
2022-11-05T17:40:30.395Z,9.80
2022-11-05T17:42:58.654Z,5.70
2022-11-05T17:45:26.664Z,9.23
2022-11-05T17:47:56.051Z,5.90
2022-11-05T17:50:24.115Z,6.93
2022-11-05T17:52:52.128Z,5.47
2022-11-05T17:55:20.276Z,4.57
2022-11-05T17:57:49.707Z,4.33
2022-11-05T18:00:19.674Z,4.63
2022-11-05T18:02:49.385Z,6.93
2022-11-05T18:05:19.970Z,5.30
2022-11-05T18:07:48.797Z,2.83
2022-11-05T18:10:17.233Z,6.60
2022-11-05T18:12:46.972Z,5.17
2022-11-05T18:15:15.634Z,7.93
2022-11-05T18:17:44.022Z,8.53
2022-11-05T18:20:18.646Z,10.87
2022-11-05T18:22:50.952Z,10.50
2022-11-05T18:25:19.760Z,14.20
2022-11-05T18:27:47.772Z,12.03
2022-11-05T18:30:15.959Z,11.50
2022-11-05T18:32:44.742Z,13.07
2022-11-05T18:35:14.394Z,14.50
2022-11-05T18:37:42.436Z,12.23
2022-11-05T18:40:12.877Z,11.30
2022-11-05T18:42:40.824Z,14.90
2022-11-05T18:45:10.695Z,8.37
2022-11-05T18:47:38.714Z,11.80
2022-11-05T18:50:08.113Z,15.43
2022-11-05T18:52:36.387Z,10.87
2022-11-05T18:55:04.637Z,9.97
2022-11-05T18:57:34.683Z,10.67
2022-11-05T19:00:02.822Z,9.50
2022-11-05T19:02:30.895Z,11.63
2022-11-05T19:07:46.989Z,15.23
2022-11-05T19:10:15.049Z,20.00
2022-11-05T19:12:44.436Z,26.53
2022-11-05T19:15:12.775Z,20.27
2022-11-05T19:17:40.827Z,16.30
2022-11-05T19:20:10.271Z,11.60
2022-11-05T19:22:38.266Z,9.73
2022-11-05T19:25:07.543Z,11.63
2022-11-05T19:27:36.656Z,13.20
2022-11-05T19:30:07.493Z,14.53
2022-11-05T19:32:35.514Z,20.47
2022-11-05T19:35:03.517Z,14.47
2022-11-05T19:37:31.506Z,14.73
2022-11-05T19:39:59.529Z,9.40
2022-11-05T19:42:28.110Z,13.37
2022-11-05T19:44:56.148Z,9.20
2022-11-05T19:47:25.671Z,7.97
2022-11-05T19:49:53.659Z,63.93
2022-11-05T19:52:22.168Z,62.17
2022-11-05T19:54:50.182Z,45.70
2022-11-05T19:57:18.193Z,37.80
2022-11-05T19:59:46.225Z,38.67
2022-11-05T20:02:16.457Z,37.70
2022-11-05T20:04:46.090Z,38.00
2022-11-05T20:07:14.145Z,41.83
2022-11-05T20:09:42.345Z,29.40
2022-11-05T20:12:10.404Z,29.50
2022-11-05T20:14:38.865Z,21.87
2022-11-05T20:17:06.902Z,21.03
2022-11-05T20:19:35.432Z,14.13
2022-11-05T20:22:04.893Z,21.97
2022-11-05T20:24:33.099Z,17.97
2022-11-05T20:27:01.133Z,15.57
2022-11-05T20:29:35.340Z,13.73
2022-11-05T20:32:04.609Z,10.97
2022-11-05T20:34:34.707Z,11.13
2022-11-05T20:37:04.169Z,10.50
2022-11-05T20:39:32.190Z,10.37
2022-11-05T20:42:00.858Z,8.80
2022-11-05T20:44:29.087Z,10.83
2022-11-05T20:46:57.160Z,11.40
2022-11-05T20:49:25.989Z,5.97
2022-11-05T20:51:54.576Z,5.37
2022-11-05T20:54:25.120Z,4.13
2022-11-05T20:56:53.133Z,5.67
2022-11-05T20:59:21.161Z,5.13
2022-11-05T21:01:51.212Z,4.73
2022-11-05T21:04:19.353Z,5.17
2022-11-05T21:06:47.353Z,5.50
2022-11-05T21:09:15.474Z,4.60
2022-11-05T21:12:02.196Z,3.37
2022-11-05T21:14:30.276Z,4.67
2022-11-05T21:16:58.345Z,4.87
2022-11-05T21:19:26.418Z,4.50
2022-11-05T21:21:54.445Z,9.53
2022-11-05T21:24:22.594Z,9.37
2022-11-05T21:26:51.993Z,9.07
2022-11-05T21:29:20.690Z,6.87
2022-11-05T21:31:49.018Z,12.40
2022-11-05T21:34:18.281Z,16.03
2022-11-05T21:36:47.108Z,15.80
2022-11-05T21:39:15.491Z,13.70
2022-11-05T21:41:43.662Z,14.83
2022-11-05T21:44:13.026Z,11.93
2022-11-05T21:46:40.994Z,9.53
2022-11-05T21:49:09.379Z,9.47
2022-11-05T21:51:54.902Z,11.23
2022-11-05T21:54:40.597Z,10.90
2022-11-05T21:57:31.771Z,9.83
2022-11-05T22:00:01.457Z,9.47
2022-11-05T22:02:30.050Z,7.93
2022-11-05T22:05:00.015Z,9.53
2022-11-05T22:07:30.098Z,6.50
2022-11-05T22:09:58.315Z,6.20
2022-11-05T22:12:26.884Z,6.00
2022-11-05T22:14:55.262Z,4.60
2022-11-05T22:17:24.937Z,5.67
2022-11-05T22:19:52.937Z,5.13
2022-11-05T22:22:20.993Z,4.17
2022-11-05T22:24:49.051Z,7.50
2022-11-05T22:27:20.537Z,6.70
2022-11-05T22:29:48.802Z,2.60
2022-11-05T22:32:17.654Z,6.70
2022-11-05T22:34:49.064Z,4.17
2022-11-05T22:37:17.192Z,7.07
2022-11-05T22:39:45.255Z,3.47
2022-11-05T22:42:13.339Z,2.03
2022-11-05T22:44:41.418Z,5.03
2022-11-05T22:47:09.479Z,5.60
2022-11-05T22:49:37.718Z,5.00
2022-11-05T22:52:07.409Z,3.47
2022-11-05T22:54:39.226Z,6.20
2022-11-05T22:57:08.593Z,3.00
2022-11-05T22:59:36.532Z,2.83
2022-11-05T23:02:09.488Z,4.83
2022-11-05T23:04:38.685Z,5.00
2022-11-05T23:07:27.853Z,3.40
2022-11-05T23:10:14.014Z,9.37
2022-11-05T23:12:43.626Z,4.23
2022-11-05T23:15:32.517Z,5.63
2022-11-05T23:18:18.078Z,4.47
2022-11-05T23:21:03.579Z,2.73
2022-11-05T23:23:50.267Z,2.83
2022-11-05T23:26:35.678Z,5.50
2022-11-05T23:29:04.263Z,4.23
2022-11-05T23:31:49.820Z,3.37
2022-11-05T23:34:17.831Z,4.33
2022-11-05T23:37:03.429Z,3.90
2022-11-05T23:39:34.038Z,6.37
2022-11-05T23:42:22.751Z,7.33
2022-11-05T23:45:11.721Z,9.97
2022-11-05T23:47:59.789Z,17.83
2022-11-05T23:50:28.023Z,9.77
2022-11-05T23:52:56.033Z,10.80
2022-11-05T23:55:26.169Z,13.93
2022-11-05T23:57:54.243Z,16.57
